DLH4Y EBBR-EDDF
Flight info
| Callsign | DLH4Y |
|---|---|
| Flight time | 0h 40m |
| Altitude | 25000 |
| Route | SPI4M SPI T180 NIVNU T847 IMCOM IMCO1D |
| Aircraft | A321/M-SDE3FGHIRWY/LB1 |
Departure
| Time | 2026-05-04 13:38 |
|---|---|
| Airport | Brussels Airport (EBBR) |
Arrival
| Time | 2026-05-04 14:18 |
|---|---|
| Airport | Frankfurt Main Airport (EDDF) |
| Time | Latitude | Longitude | Altitude | Speed | Heading |
|---|---|---|---|---|---|
| 2026-05-04 13:05 | 50.90347 | 4.48827 | 121 ft | 0 kts | 335° |
| 2026-05-04 13:29 | 50.90343 | 4.48830 | 121 ft | 4 kts | 336° |
| 2026-05-04 13:29 | 50.90317 | 4.48844 | 118 ft | 4 kts | 348° |
| 2026-05-04 13:29 | 50.90291 | 4.48849 | 123 ft | 4 kts | 5° |
| 2026-05-04 13:29 | 50.90266 | 4.48839 | 119 ft | 4 kts | 40° |
| 2026-05-04 13:30 | 50.90258 | 4.48824 | 124 ft | 1 kts | 65° |
| 2026-05-04 13:33 | 50.90260 | 4.48830 | 124 ft | 1 kts | 65° |
| 2026-05-04 13:33 | 50.90273 | 4.48876 | 123 ft | 7 kts | 65° |
| 2026-05-04 13:34 | 50.90294 | 4.48949 | 126 ft | 8 kts | 65° |
| 2026-05-04 13:34 | 50.90320 | 4.49038 | 124 ft | 10 kts | 65° |
| 2026-05-04 13:34 | 50.90356 | 4.49162 | 123 ft | 14 kts | 65° |
| 2026-05-04 13:34 | 50.90397 | 4.49305 | 120 ft | 15 kts | 65° |
| 2026-05-04 13:35 | 50.90443 | 4.49464 | 123 ft | 17 kts | 65° |
| 2026-05-04 13:35 | 50.90570 | 4.49639 | 120 ft | 13 kts | 14° |
| 2026-05-04 13:35 | 50.90664 | 4.49677 | 122 ft | 15 kts | 14° |
| 2026-05-04 13:36 | 50.90764 | 4.49718 | 122 ft | 16 kts | 14° |
| 2026-05-04 13:36 | 50.90835 | 4.49747 | 121 ft | 8 kts | 15° |
| 2026-05-04 13:36 | 50.90897 | 4.49772 | 122 ft | 10 kts | 14° |
| 2026-05-04 13:36 | 50.90960 | 4.49834 | 120 ft | 12 kts | 39° |
| 2026-05-04 13:37 | 50.91040 | 4.49913 | 120 ft | 15 kts | 22° |
| 2026-05-04 13:37 | 50.91126 | 4.49925 | 116 ft | 12 kts | 323° |
| 2026-05-04 13:37 | 50.91112 | 4.49794 | 116 ft | 18 kts | 246° |
| 2026-05-04 13:37 | 50.91040 | 4.49543 | 118 ft | 64 kts | 245° |
| 2026-05-04 13:38 | 50.90613 | 4.48064 | 122 ft | 152 kts | 245° |
| 2026-05-04 13:38 | 50.90136 | 4.46398 | 563 ft | 167 kts | 246° |
| 2026-05-04 13:38 | 50.89800 | 4.44657 | 1331 ft | 169 kts | 266° |
| 2026-05-04 13:38 | 50.89943 | 4.42819 | 2167 ft | 169 kts | 290° |
| 2026-05-04 13:39 | 50.90395 | 4.41038 | 2750 ft | 184 kts | 292° |
| 2026-05-04 13:39 | 50.90900 | 4.39046 | 3215 ft | 204 kts | 292° |
| 2026-05-04 13:39 | 50.91452 | 4.36845 | 3603 ft | 225 kts | 291° |
| 2026-05-04 13:39 | 50.91725 | 4.34332 | 3868 ft | 250 kts | 259° |
| 2026-05-04 13:40 | 50.90906 | 4.31824 | 4502 ft | 262 kts | 228° |
| 2026-05-04 13:40 | 50.89563 | 4.29859 | 5300 ft | 267 kts | 219° |
| 2026-05-04 13:40 | 50.88108 | 4.28005 | 6155 ft | 269 kts | 218° |
| 2026-05-04 13:40 | 50.86632 | 4.26143 | 6895 ft | 272 kts | 218° |
| 2026-05-04 13:41 | 50.85174 | 4.24244 | 7612 ft | 276 kts | 219° |
| 2026-05-04 13:41 | 50.83580 | 4.22516 | 8317 ft | 279 kts | 204° |
| 2026-05-04 13:41 | 50.81714 | 4.21654 | 9016 ft | 282 kts | 186° |
| 2026-05-04 13:42 | 50.77903 | 4.22978 | 10376 ft | 288 kts | 145° |
| 2026-05-04 13:42 | 50.76588 | 4.25306 | 11028 ft | 293 kts | 120° |
| 2026-05-04 13:42 | 50.75712 | 4.28242 | 11708 ft | 295 kts | 112° |
| 2026-05-04 13:42 | 50.75043 | 4.31331 | 12387 ft | 299 kts | 106° |
| 2026-05-04 13:43 | 50.74685 | 4.34588 | 13024 ft | 304 kts | 94° |
| 2026-05-04 13:43 | 50.74652 | 4.37952 | 13664 ft | 307 kts | 91° |
| 2026-05-04 13:43 | 50.74666 | 4.41343 | 14285 ft | 310 kts | 91° |
| 2026-05-04 13:43 | 50.74701 | 4.44735 | 14882 ft | 314 kts | 91° |
| 2026-05-04 13:44 | 50.74745 | 4.48202 | 15476 ft | 317 kts | 91° |
| 2026-05-04 13:44 | 50.74789 | 4.51705 | 16054 ft | 320 kts | 91° |
| 2026-05-04 13:44 | 50.74834 | 4.55250 | 16619 ft | 323 kts | 91° |
| 2026-05-04 13:44 | 50.74878 | 4.58816 | 17165 ft | 326 kts | 91° |
| 2026-05-04 13:45 | 50.74883 | 4.62418 | 17685 ft | 328 kts | 97° |
| 2026-05-04 13:45 | 50.74484 | 4.65958 | 18185 ft | 328 kts | 109° |
| 2026-05-04 13:45 | 50.73871 | 4.69404 | 18691 ft | 331 kts | 108° |
| 2026-05-04 13:45 | 50.73259 | 4.72927 | 19202 ft | 334 kts | 108° |
| 2026-05-04 13:46 | 50.72643 | 4.76497 | 19688 ft | 338 kts | 108° |
| 2026-05-04 13:46 | 50.72020 | 4.80099 | 20162 ft | 341 kts | 109° |
| 2026-05-04 13:46 | 50.71388 | 4.83722 | 20626 ft | 343 kts | 109° |
| 2026-05-04 13:46 | 50.70747 | 4.87374 | 21076 ft | 347 kts | 109° |
| 2026-05-04 13:47 | 50.70104 | 4.91013 | 21526 ft | 350 kts | 109° |
| 2026-05-04 13:47 | 50.69446 | 4.94723 | 21991 ft | 353 kts | 109° |
| 2026-05-04 13:47 | 50.68778 | 4.98473 | 22445 ft | 356 kts | 109° |
| 2026-05-04 13:47 | 50.68107 | 5.02240 | 22877 ft | 359 kts | 110° |
| 2026-05-04 13:48 | 50.67429 | 5.06043 | 23290 ft | 362 kts | 110° |
| 2026-05-04 13:48 | 50.66742 | 5.09881 | 23688 ft | 365 kts | 110° |
| 2026-05-04 13:48 | 50.66048 | 5.13742 | 24090 ft | 367 kts | 110° |
| 2026-05-04 13:48 | 50.65346 | 5.17634 | 24462 ft | 370 kts | 110° |
| 2026-05-04 13:49 | 50.64636 | 5.21555 | 24840 ft | 373 kts | 110° |
| 2026-05-04 13:49 | 50.63921 | 5.25506 | 24974 ft | 376 kts | 111° |
| 2026-05-04 13:49 | 50.63199 | 5.29487 | 25005 ft | 389 kts | 110° |
| 2026-05-04 13:49 | 50.62443 | 5.33661 | 25001 ft | 402 kts | 110° |
| 2026-05-04 13:50 | 50.61660 | 5.37979 | 24997 ft | 415 kts | 110° |
| 2026-05-04 13:50 | 50.60853 | 5.42417 | 25003 ft | 427 kts | 110° |
| 2026-05-04 13:50 | 50.60019 | 5.46979 | 24999 ft | 439 kts | 110° |
| 2026-05-04 13:50 | 50.59162 | 5.51651 | 25000 ft | 450 kts | 110° |
| 2026-05-04 13:51 | 50.58583 | 5.54803 | 24995 ft | 456 kts | 110° |
| 2026-05-04 13:51 | 50.57394 | 5.61266 | 24996 ft | 461 kts | 110° |
| 2026-05-04 13:51 | 50.56803 | 5.64475 | 24999 ft | 462 kts | 110° |
| 2026-05-04 13:51 | 50.55618 | 5.70917 | 24999 ft | 462 kts | 110° |
| 2026-05-04 13:52 | 50.53826 | 5.80647 | 25003 ft | 469 kts | 110° |
| 2026-05-04 13:52 | 50.53216 | 5.83922 | 25010 ft | 475 kts | 110° |
| 2026-05-04 13:52 | 50.52274 | 5.88947 | 25003 ft | 482 kts | 110° |
| 2026-05-04 13:53 | 50.51320 | 5.94031 | 24999 ft | 485 kts | 110° |
| 2026-05-04 13:53 | 50.50365 | 5.99128 | 24998 ft | 486 kts | 110° |
| 2026-05-04 13:53 | 50.49409 | 6.04230 | 25003 ft | 487 kts | 110° |
| 2026-05-04 13:54 | 50.47491 | 6.14430 | 25010 ft | 488 kts | 110° |
| 2026-05-04 13:54 | 50.46523 | 6.19549 | 24998 ft | 488 kts | 110° |
| 2026-05-04 13:54 | 50.44583 | 6.29764 | 25002 ft | 488 kts | 110° |
| 2026-05-04 13:55 | 50.43609 | 6.34863 | 25006 ft | 488 kts | 110° |
| 2026-05-04 13:55 | 50.41584 | 6.44958 | 24975 ft | 486 kts | 114° |
| 2026-05-04 13:55 | 50.40405 | 6.49929 | 24842 ft | 486 kts | 115° |
| 2026-05-04 13:56 | 50.39170 | 6.54857 | 24724 ft | 485 kts | 116° |
| 2026-05-04 13:56 | 50.37918 | 6.59761 | 24587 ft | 479 kts | 116° |
| 2026-05-04 13:56 | 50.35550 | 6.69249 | 23848 ft | 459 kts | 115° |
| 2026-05-04 13:57 | 50.34432 | 6.73844 | 23568 ft | 458 kts | 114° |
| 2026-05-04 13:57 | 50.33379 | 6.78559 | 23314 ft | 461 kts | 108° |
| 2026-05-04 13:58 | 50.32416 | 6.93415 | 21580 ft | 454 kts | 97° |
| 2026-05-04 13:58 | 50.31994 | 7.03149 | 20583 ft | 447 kts | 97° |
| 2026-05-04 13:58 | 50.31776 | 7.07982 | 20083 ft | 443 kts | 97° |
| 2026-05-04 13:59 | 50.31545 | 7.12783 | 19582 ft | 440 kts | 97° |
| 2026-05-04 13:59 | 50.31309 | 7.17538 | 19072 ft | 435 kts | 97° |
| 2026-05-04 13:59 | 50.30832 | 7.26861 | 18086 ft | 428 kts | 97° |
| 2026-05-04 14:00 | 50.30595 | 7.31496 | 17584 ft | 425 kts | 97° |
| 2026-05-04 14:00 | 50.30118 | 7.40649 | 16584 ft | 419 kts | 97° |
| 2026-05-04 14:00 | 50.29884 | 7.45184 | 16083 ft | 416 kts | 97° |
| 2026-05-04 14:01 | 50.29652 | 7.49675 | 15582 ft | 413 kts | 97° |
| 2026-05-04 14:01 | 50.29421 | 7.54084 | 15086 ft | 410 kts | 97° |
| 2026-05-04 14:01 | 50.28946 | 7.62937 | 14073 ft | 405 kts | 97° |
| 2026-05-04 14:02 | 50.28705 | 7.67334 | 13580 ft | 403 kts | 97° |
| 2026-05-04 14:02 | 50.28468 | 7.71635 | 13086 ft | 400 kts | 97° |
| 2026-05-04 14:02 | 50.28233 | 7.75961 | 12584 ft | 398 kts | 97° |
| 2026-05-04 14:02 | 50.27995 | 7.80260 | 12080 ft | 395 kts | 97° |
| 2026-05-04 14:03 | 50.27757 | 7.84538 | 11579 ft | 393 kts | 97° |
| 2026-05-04 14:03 | 50.27525 | 7.88779 | 11127 ft | 389 kts | 97° |
| 2026-05-04 14:03 | 50.27293 | 7.92939 | 10980 ft | 387 kts | 97° |
| 2026-05-04 14:03 | 50.27056 | 7.97140 | 11008 ft | 388 kts | 97° |
| 2026-05-04 14:04 | 50.26582 | 8.05551 | 11008 ft | 388 kts | 97° |
| 2026-05-04 14:04 | 50.26340 | 8.09752 | 11008 ft | 388 kts | 97° |
| 2026-05-04 14:04 | 50.26094 | 8.13963 | 10999 ft | 388 kts | 97° |
| 2026-05-04 14:05 | 50.25596 | 8.22367 | 11000 ft | 388 kts | 97° |
| 2026-05-04 14:05 | 50.25348 | 8.26511 | 10999 ft | 388 kts | 97° |
| 2026-05-04 14:05 | 50.25095 | 8.30719 | 10999 ft | 388 kts | 97° |
| 2026-05-04 14:06 | 50.24843 | 8.34923 | 10989 ft | 388 kts | 97° |
| 2026-05-04 14:06 | 50.24592 | 8.39126 | 10989 ft | 388 kts | 97° |
| 2026-05-04 14:06 | 50.24340 | 8.43344 | 10986 ft | 388 kts | 97° |
| 2026-05-04 14:06 | 50.24086 | 8.47492 | 10982 ft | 388 kts | 97° |
| 2026-05-04 14:07 | 50.23830 | 8.51697 | 10725 ft | 387 kts | 97° |
| 2026-05-04 14:07 | 50.23583 | 8.55876 | 10449 ft | 385 kts | 97° |
| 2026-05-04 14:07 | 50.23332 | 8.59993 | 10196 ft | 373 kts | 97° |
| 2026-05-04 14:07 | 50.23091 | 8.63913 | 10075 ft | 354 kts | 97° |
| 2026-05-04 14:08 | 50.22858 | 8.67649 | 9940 ft | 336 kts | 97° |
| 2026-05-04 14:08 | 50.22635 | 8.71162 | 9814 ft | 321 kts | 97° |
| 2026-05-04 14:08 | 50.22414 | 8.74565 | 9688 ft | 308 kts | 97° |
| 2026-05-04 14:08 | 50.22202 | 8.77829 | 9560 ft | 296 kts | 97° |
| 2026-05-04 14:09 | 50.21882 | 8.83999 | 9307 ft | 275 kts | 91° |
| 2026-05-04 14:09 | 50.21975 | 8.86933 | 9174 ft | 266 kts | 85° |
| 2026-05-04 14:10 | 50.22730 | 8.92481 | 8632 ft | 259 kts | 72° |
| 2026-05-04 14:10 | 50.23117 | 8.95202 | 8307 ft | 256 kts | 92° |
| 2026-05-04 14:10 | 50.22678 | 8.97827 | 7981 ft | 250 kts | 123° |
| 2026-05-04 14:10 | 50.21471 | 8.99707 | 7627 ft | 244 kts | 154° |
| 2026-05-04 14:11 | 50.19932 | 9.00705 | 7245 ft | 243 kts | 163° |
| 2026-05-04 14:11 | 50.16781 | 9.00005 | 6544 ft | 236 kts | 218° |
| 2026-05-04 14:11 | 50.15525 | 8.98347 | 6179 ft | 237 kts | 222° |
| 2026-05-04 14:12 | 50.14302 | 8.96630 | 5859 ft | 235 kts | 222° |
| 2026-05-04 14:12 | 50.13099 | 8.94917 | 5456 ft | 233 kts | 224° |
| 2026-05-04 14:12 | 50.11542 | 8.90559 | 4601 ft | 232 kts | 250° |
| 2026-05-04 14:13 | 50.10994 | 8.88212 | 4285 ft | 227 kts | 250° |
| 2026-05-04 14:13 | 50.10458 | 8.85923 | 3985 ft | 222 kts | 250° |
| 2026-05-04 14:13 | 50.09934 | 8.83699 | 3693 ft | 216 kts | 249° |
| 2026-05-04 14:13 | 50.09430 | 8.81562 | 3416 ft | 210 kts | 249° |
| 2026-05-04 14:14 | 50.08934 | 8.79458 | 3153 ft | 203 kts | 249° |
| 2026-05-04 14:14 | 50.07997 | 8.75486 | 2622 ft | 189 kts | 249° |
| 2026-05-04 14:14 | 50.07556 | 8.73619 | 2372 ft | 177 kts | 249° |
| 2026-05-04 14:15 | 50.06769 | 8.70270 | 1938 ft | 156 kts | 251° |
| 2026-05-04 14:15 | 50.06409 | 8.66979 | 1451 ft | 153 kts | 263° |
| 2026-05-04 14:16 | 50.05788 | 8.63871 | 1162 ft | 150 kts | 247° |
| 2026-05-04 14:16 | 50.05405 | 8.62379 | 940 ft | 148 kts | 247° |
| 2026-05-04 14:17 | 50.04681 | 8.59383 | 517 ft | 147 kts | 249° |
| 2026-05-04 14:17 | 50.04326 | 8.57907 | 367 ft | 139 kts | 249° |
| 2026-05-04 14:17 | 50.03864 | 8.55984 | 351 ft | 55 kts | 250° |
| 2026-05-04 14:18 | 50.03737 | 8.55451 | 353 ft | 50 kts | 250° |
| 2026-05-04 14:18 | 50.03708 | 8.54883 | 345 ft | 12 kts | 284° |
| 2026-05-04 14:19 | 50.03733 | 8.54841 | 352 ft | 0 kts | 339° |
| 2026-05-04 14:19 | 50.03750 | 8.54838 | 350 ft | 6 kts | 1° |
| 2026-05-04 14:19 | 50.03785 | 8.54869 | 347 ft | 8 kts | 47° |
| 2026-05-04 14:19 | 50.03817 | 8.54982 | 348 ft | 13 kts | 70° |
| 2026-05-04 14:20 | 50.03850 | 8.55121 | 349 ft | 14 kts | 70° |
| 2026-05-04 14:20 | 50.03885 | 8.55269 | 351 ft | 15 kts | 69° |
| 2026-05-04 14:20 | 50.03924 | 8.55429 | 349 ft | 16 kts | 69° |
| 2026-05-04 14:21 | 50.04006 | 8.55773 | 352 ft | 16 kts | 70° |
| 2026-05-04 14:21 | 50.04045 | 8.55934 | 358 ft | 16 kts | 69° |
| 2026-05-04 14:21 | 50.04084 | 8.56097 | 352 ft | 16 kts | 69° |
| 2026-05-04 14:21 | 50.04123 | 8.56262 | 361 ft | 17 kts | 69° |
| 2026-05-04 14:22 | 50.04163 | 8.56429 | 354 ft | 16 kts | 69° |
| 2026-05-04 14:22 | 50.04202 | 8.56591 | 356 ft | 16 kts | 70° |
| 2026-05-04 14:22 | 50.04236 | 8.56732 | 358 ft | 11 kts | 70° |
| 2026-05-04 14:22 | 50.04280 | 8.56803 | 359 ft | 9 kts | 21° |
| 2026-05-04 14:23 | 50.04409 | 8.56844 | 360 ft | 11 kts | 8° |
| 2026-05-04 14:23 | 50.04487 | 8.56867 | 359 ft | 10 kts | 13° |
| 2026-05-04 14:23 | 50.04544 | 8.56888 | 359 ft | 9 kts | 13° |
| 2026-05-04 14:24 | 50.04581 | 8.56863 | 359 ft | 6 kts | 293° |
| 2026-05-04 14:24 | 50.04597 | 8.56807 | 356 ft | 5 kts | 295° |
| 2026-05-04 14:24 | 50.04601 | 8.56792 | 356 ft | 0 kts | 295° |
| 2026-05-04 14:24 | 50.04603 | 8.56788 | 356 ft | 1 kts | 295° |
| 2026-05-04 14:25 | 50.04607 | 8.56775 | 356 ft | 1 kts | 295° |
| 2026-05-04 14:25 | 50.04607 | 8.56773 | 356 ft | 0 kts | 295° |